sensor_id;sensor_type;location;lat;lon;timestamp;temperature;humidity
31783;DHT22;18351;47.560;9.708;2023-09-12T00:00:45;17.70;99.90
31783;DHT22;18351;47.560;9.708;2023-09-12T00:03:11;17.70;99.90
31783;DHT22;18351;47.560;9.708;2023-09-12T00:05:37;17.80;99.90
31783;DHT22;18351;47.560;9.708;2023-09-12T00:08:03;17.70;99.90
31783;DHT22;18351;47.560;9.708;2023-09-12T00:10:29;17.70;99.90
31783;DHT22;18351;47.560;9.708;2023-09-12T00:12:55;17.60;99.90
31783;DHT22;18351;47.560;9.708;2023-09-12T00:15:21;17.60;99.90
31783;DHT22;18351;47.560;9.708;2023-09-12T00:17:47;17.60;99.90
31783;DHT22;18351;47.560;9.708;2023-09-12T00:20:14;17.60;99.90
31783;DHT22;18351;47.560;9.708;2023-09-12T00:22:39;17.60;99.90
31783;DHT22;18351;47.560;9.708;2023-09-12T00:25:05;17.60;99.90
31783;DHT22;18351;47.560;9.708;2023-09-12T00:27:31;17.60;99.90
31783;DHT22;18351;47.560;9.708;2023-09-12T00:29:56;17.60;99.90
31783;DHT22;18351;47.560;9.708;2023-09-12T00:32:22;17.60;99.90
31783;DHT22;18351;47.560;9.708;2023-09-12T00:34:47;17.50;99.90
31783;DHT22;18351;47.560;9.708;2023-09-12T00:37:13;17.50;99.90
31783;DHT22;18351;47.560;9.708;2023-09-12T00:39:39;17.50;99.90
31783;DHT22;18351;47.560;9.708;2023-09-12T00:42:04;17.40;99.90
31783;DHT22;18351;47.560;9.708;2023-09-12T00:44:33;17.40;99.90
31783;DHT22;18351;47.560;9.708;2023-09-12T00:47:00;17.50;99.90
31783;DHT22;18351;47.560;9.708;2023-09-12T00:49:27;17.40;99.90
31783;DHT22;18351;47.560;9.708;2023-09-12T00:51:55;17.40;99.90
31783;DHT22;18351;47.560;9.708;2023-09-12T00:54:22;17.40;99.90
31783;DHT22;18351;47.560;9.708;2023-09-12T00:56:47;17.40;99.90
31783;DHT22;18351;47.560;9.708;2023-09-12T00:59:15;17.30;99.90
31783;DHT22;18351;47.560;9.708;2023-09-12T01:01:43;17.30;99.90
31783;DHT22;18351;47.560;9.708;2023-09-12T01:04:09;17.20;99.90
31783;DHT22;18351;47.560;9.708;2023-09-12T01:06:35;17.20;99.90
31783;DHT22;18351;47.560;9.708;2023-09-12T01:09:01;17.20;99.90
31783;DHT22;18351;47.560;9.708;2023-09-12T01:11:26;17.10;99.90
31783;DHT22;18351;47.560;9.708;2023-09-12T01:13:52;17.10;99.90
31783;DHT22;18351;47.560;9.708;2023-09-12T01:16:18;17.10;99.90
31783;DHT22;18351;47.560;9.708;2023-09-12T01:18:44;17.10;99.90
31783;DHT22;18351;47.560;9.708;2023-09-12T01:24:23;17.00;99.90
31783;DHT22;18351;47.560;9.708;2023-09-12T01:26:56;17.00;99.90
31783;DHT22;18351;47.560;9.708;2023-09-12T01:29:24;17.00;99.90
31783;DHT22;18351;47.560;9.708;2023-09-12T01:31:51;16.90;99.90
31783;DHT22;18351;47.560;9.708;2023-09-12T01:34:17;16.90;99.90
31783;DHT22;18351;47.560;9.708;2023-09-12T01:36:44;16.90;99.90
31783;DHT22;18351;47.560;9.708;2023-09-12T01:39:10;16.90;99.90
31783;DHT22;18351;47.560;9.708;2023-09-12T01:41:39;16.90;99.90
31783;DHT22;18351;47.560;9.708;2023-09-12T01:44:06;16.90;99.90
31783;DHT22;18351;47.560;9.708;2023-09-12T01:46:34;16.90;99.90
31783;DHT22;18351;47.560;9.708;2023-09-12T01:49:02;16.80;99.90
31783;DHT22;18351;47.560;9.708;2023-09-12T01:51:28;16.80;99.90
31783;DHT22;18351;47.560;9.708;2023-09-12T01:53:54;16.70;99.90
31783;DHT22;18351;47.560;9.708;2023-09-12T01:56:21;16.60;99.90
31783;DHT22;18351;47.560;9.708;2023-09-12T01:58:47;16.50;99.90
31783;DHT22;18351;47.560;9.708;2023-09-12T02:01:12;16.50;99.90
31783;DHT22;18351;47.560;9.708;2023-09-12T02:03:38;16.50;99.90
31783;DHT22;18351;47.560;9.708;2023-09-12T02:06:03;16.40;99.90
31783;DHT22;18351;47.560;9.708;2023-09-12T02:08:29;16.50;99.90
31783;DHT22;18351;47.560;9.708;2023-09-12T02:10:55;16.40;99.90
31783;DHT22;18351;47.560;9.708;2023-09-12T02:13:20;16.40;99.90
31783;DHT22;18351;47.560;9.708;2023-09-12T02:15:46;16.30;99.90
31783;DHT22;18351;47.560;9.708;2023-09-12T02:18:11;16.30;99.90
31783;DHT22;18351;47.560;9.708;2023-09-12T02:20:41;16.30;99.90
31783;DHT22;18351;47.560;9.708;2023-09-12T02:23:10;16.30;99.90
31783;DHT22;18351;47.560;9.708;2023-09-12T02:25:35;16.30;99.90
31783;DHT22;18351;47.560;9.708;2023-09-12T02:28:01;16.30;99.90
31783;DHT22;18351;47.560;9.708;2023-09-12T02:30:26;16.20;99.90
31783;DHT22;18351;47.560;9.708;2023-09-12T02:32:52;16.20;99.90
31783;DHT22;18351;47.560;9.708;2023-09-12T02:35:17;16.20;99.90
31783;DHT22;18351;47.560;9.708;2023-09-12T02:37:43;16.20;99.90
31783;DHT22;18351;47.560;9.708;2023-09-12T02:40:08;16.10;99.90
31783;DHT22;18351;47.560;9.708;2023-09-12T02:42:37;16.10;99.90
31783;DHT22;18351;47.560;9.708;2023-09-12T02:45:03;16.10;99.90
31783;DHT22;18351;47.560;9.708;2023-09-12T02:47:29;16.10;99.90
31783;DHT22;18351;47.560;9.708;2023-09-12T02:49:55;16.00;99.90
31783;DHT22;18351;47.560;9.708;2023-09-12T02:52:20;16.00;99.90
31783;DHT22;18351;47.560;9.708;2023-09-12T02:54:46;16.00;99.90
31783;DHT22;18351;47.560;9.708;2023-09-12T02:57:11;15.90;99.90
31783;DHT22;18351;47.560;9.708;2023-09-12T02:59:37;15.90;99.90
31783;DHT22;18351;47.560;9.708;2023-09-12T03:02:02;15.90;99.90
31783;DHT22;18351;47.560;9.708;2023-09-12T03:04:29;15.90;99.90
31783;DHT22;18351;47.560;9.708;2023-09-12T03:06:55;15.80;99.90
31783;DHT22;18351;47.560;9.708;2023-09-12T03:09:20;15.80;99.90
31783;DHT22;18351;47.560;9.708;2023-09-12T03:11:48;15.80;99.90
31783;DHT22;18351;47.560;9.708;2023-09-12T03:14:14;15.80;99.90
31783;DHT22;18351;47.560;9.708;2023-09-12T03:16:40;15.70;99.90
31783;DHT22;18351;47.560;9.708;2023-09-12T03:19:05;15.70;99.90
31783;DHT22;18351;47.560;9.708;2023-09-12T03:21:31;15.60;99.90
31783;DHT22;18351;47.560;9.708;2023-09-12T03:23:57;15.60;99.90
31783;DHT22;18351;47.560;9.708;2023-09-12T03:26:22;15.60;99.90
31783;DHT22;18351;47.560;9.708;2023-09-12T03:28:49;15.60;99.90
31783;DHT22;18351;47.560;9.708;2023-09-12T03:31:15;15.50;99.90
31783;DHT22;18351;47.560;9.708;2023-09-12T03:33:42;15.50;99.90
31783;DHT22;18351;47.560;9.708;2023-09-12T03:36:08;15.60;99.90
31783;DHT22;18351;47.560;9.708;2023-09-12T03:38:34;15.60;99.90
31783;DHT22;18351;47.560;9.708;2023-09-12T03:41:01;15.50;99.90
31783;DHT22;18351;47.560;9.708;2023-09-12T03:43:27;15.50;99.90
31783;DHT22;18351;47.560;9.708;2023-09-12T03:45:53;15.50;99.90
31783;DHT22;18351;47.560;9.708;2023-09-12T03:48:19;15.50;99.90
31783;DHT22;18351;47.560;9.708;2023-09-12T03:50:45;15.50;99.90
31783;DHT22;18351;47.560;9.708;2023-09-12T03:53:10;15.40;99.90
31783;DHT22;18351;47.560;9.708;2023-09-12T03:55:36;15.50;99.90
31783;DHT22;18351;47.560;9.708;2023-09-12T03:58:02;15.40;99.90
31783;DHT22;18351;47.560;9.708;2023-09-12T04:00:28;15.40;99.90
31783;DHT22;18351;47.560;9.708;2023-09-12T04:02:53;15.40;99.90
31783;DHT22;18351;47.560;9.708;2023-09-12T04:05:19;15.30;99.90
31783;DHT22;18351;47.560;9.708;2023-09-12T04:07:44;15.30;99.90
31783;DHT22;18351;47.560;9.708;2023-09-12T04:10:10;15.30;99.90
31783;DHT22;18351;47.560;9.708;2023-09-12T04:12:35;15.20;99.90
31783;DHT22;18351;47.560;9.708;2023-09-12T04:15:01;15.20;99.90
31783;DHT22;18351;47.560;9.708;2023-09-12T04:17:26;15.30;99.90
31783;DHT22;18351;47.560;9.708;2023-09-12T04:19:52;15.20;99.90
31783;DHT22;18351;47.560;9.708;2023-09-12T04:22:18;15.20;99.90
31783;DHT22;18351;47.560;9.708;2023-09-12T04:24:43;15.20;99.90
31783;DHT22;18351;47.560;9.708;2023-09-12T04:27:09;15.20;99.90
31783;DHT22;18351;47.560;9.708;2023-09-12T04:29:34;15.20;99.90
31783;DHT22;18351;47.560;9.708;2023-09-12T04:32:02;15.10;99.90
31783;DHT22;18351;47.560;9.708;2023-09-12T04:34:28;15.10;99.90
31783;DHT22;18351;47.560;9.708;2023-09-12T04:36:54;15.20;99.90
31783;DHT22;18351;47.560;9.708;2023-09-12T04:39:19;15.20;99.90
31783;DHT22;18351;47.560;9.708;2023-09-12T04:41:46;15.20;99.90
31783;DHT22;18351;47.560;9.708;2023-09-12T04:44:11;15.30;99.90
31783;DHT22;18351;47.560;9.708;2023-09-12T04:46:37;15.20;99.90
31783;DHT22;18351;47.560;9.708;2023-09-12T04:49:03;15.30;99.90
31783;DHT22;18351;47.560;9.708;2023-09-12T04:51:28;15.20;99.90
31783;DHT22;18351;47.560;9.708;2023-09-12T04:53:54;15.20;99.90
31783;DHT22;18351;47.560;9.708;2023-09-12T04:56:20;15.20;99.90
31783;DHT22;18351;47.560;9.708;2023-09-12T04:58:46;15.20;99.90
31783;DHT22;18351;47.560;9.708;2023-09-12T05:01:12;15.20;99.90
31783;DHT22;18351;47.560;9.708;2023-09-12T05:03:37;15.30;99.90
31783;DHT22;18351;47.560;9.708;2023-09-12T05:06:03;15.20;99.90
31783;DHT22;18351;47.560;9.708;2023-09-12T05:08:29;15.30;99.90
31783;DHT22;18351;47.560;9.708;2023-09-12T05:10:55;15.20;99.90
31783;DHT22;18351;47.560;9.708;2023-09-12T05:13:20;15.30;99.90
31783;DHT22;18351;47.560;9.708;2023-09-12T05:15:46;15.30;99.90
31783;DHT22;18351;47.560;9.708;2023-09-12T05:18:12;15.30;99.90
31783;DHT22;18351;47.560;9.708;2023-09-12T05:20:38;15.30;99.90
31783;DHT22;18351;47.560;9.708;2023-09-12T05:23:03;15.40;99.90
31783;DHT22;18351;47.560;9.708;2023-09-12T05:25:29;15.40;99.90
31783;DHT22;18351;47.560;9.708;2023-09-12T05:27:55;15.40;99.90
31783;DHT22;18351;47.560;9.708;2023-09-12T05:30:21;15.50;99.90
31783;DHT22;18351;47.560;9.708;2023-09-12T05:32:47;15.60;99.90
31783;DHT22;18351;47.560;9.708;2023-09-12T05:35:12;15.70;99.90
31783;DHT22;18351;47.560;9.708;2023-09-12T05:37:38;15.70;99.90
31783;DHT22;18351;47.560;9.708;2023-09-12T05:40:04;15.80;99.90
31783;DHT22;18351;47.560;9.708;2023-09-12T05:42:30;15.90;99.90
31783;DHT22;18351;47.560;9.708;2023-09-12T05:44:55;15.90;99.90
31783;DHT22;18351;47.560;9.708;2023-09-12T05:47:22;16.00;99.90
31783;DHT22;18351;47.560;9.708;2023-09-12T05:49:48;16.00;99.90
31783;DHT22;18351;47.560;9.708;2023-09-12T05:52:13;16.20;99.90
31783;DHT22;18351;47.560;9.708;2023-09-12T05:54:39;16.40;99.90
31783;DHT22;18351;47.560;9.708;2023-09-12T05:57:06;16.40;99.90
31783;DHT22;18351;47.560;9.708;2023-09-12T05:59:32;16.50;99.90
31783;DHT22;18351;47.560;9.708;2023-09-12T06:01:58;16.70;99.90
31783;DHT22;18351;47.560;9.708;2023-09-12T06:04:24;16.80;99.90
31783;DHT22;18351;47.560;9.708;2023-09-12T06:06:49;16.90;99.90
31783;DHT22;18351;47.560;9.708;2023-09-12T06:09:15;17.10;99.90
31783;DHT22;18351;47.560;9.708;2023-09-12T06:11:40;17.20;99.90
31783;DHT22;18351;47.560;9.708;2023-09-12T06:14:06;17.40;99.90
31783;DHT22;18351;47.560;9.708;2023-09-12T06:16:31;17.50;99.90
31783;DHT22;18351;47.560;9.708;2023-09-12T06:18:57;17.70;99.90
31783;DHT22;18351;47.560;9.708;2023-09-12T06:21:22;17.80;99.90
31783;DHT22;18351;47.560;9.708;2023-09-12T06:24:00;18.00;99.90
31783;DHT22;18351;47.560;9.708;2023-09-12T06:26:32;18.10;99.90
31783;DHT22;18351;47.560;9.708;2023-09-12T06:28:59;18.30;99.90
31783;DHT22;18351;47.560;9.708;2023-09-12T06:31:24;18.40;99.90
31783;DHT22;18351;47.560;9.708;2023-09-12T06:33:50;18.60;99.90
31783;DHT22;18351;47.560;9.708;2023-09-12T06:36:15;18.70;99.90
31783;DHT22;18351;47.560;9.708;2023-09-12T06:38:41;18.90;99.90
31783;DHT22;18351;47.560;9.708;2023-09-12T06:41:06;19.10;99.90
31783;DHT22;18351;47.560;9.708;2023-09-12T06:43:32;19.30;99.90
31783;DHT22;18351;47.560;9.708;2023-09-12T06:45:57;19.40;99.90
31783;DHT22;18351;47.560;9.708;2023-09-12T06:48:23;19.60;99.90
31783;DHT22;18351;47.560;9.708;2023-09-12T06:50:48;19.70;99.90
31783;DHT22;18351;47.560;9.708;2023-09-12T06:53:15;19.90;99.90
31783;DHT22;18351;47.560;9.708;2023-09-12T06:55:41;19.90;99.90
31783;DHT22;18351;47.560;9.708;2023-09-12T06:58:06;20.10;99.90
31783;DHT22;18351;47.560;9.708;2023-09-12T07:00:33;20.30;99.90
31783;DHT22;18351;47.560;9.708;2023-09-12T07:02:58;20.40;99.90
31783;DHT22;18351;47.560;9.708;2023-09-12T07:05:24;20.50;99.90
31783;DHT22;18351;47.560;9.708;2023-09-12T07:07:49;20.60;99.90
31783;DHT22;18351;47.560;9.708;2023-09-12T07:10:15;20.80;99.90
31783;DHT22;18351;47.560;9.708;2023-09-12T07:12:41;20.80;99.90
31783;DHT22;18351;47.560;9.708;2023-09-12T07:15:06;21.00;99.90
31783;DHT22;18351;47.560;9.708;2023-09-12T07:17:32;21.00;99.90
31783;DHT22;18351;47.560;9.708;2023-09-12T07:19:58;21.10;99.90
31783;DHT22;18351;47.560;9.708;2023-09-12T07:22:23;21.20;99.90
31783;DHT22;18351;47.560;9.708;2023-09-12T07:24:49;21.40;99.90
31783;DHT22;18351;47.560;9.708;2023-09-12T07:27:14;21.50;99.90
31783;DHT22;18351;47.560;9.708;2023-09-12T07:29:40;21.60;99.90
31783;DHT22;18351;47.560;9.708;2023-09-12T07:32:05;21.70;99.90
31783;DHT22;18351;47.560;9.708;2023-09-12T07:34:31;21.80;99.90
31783;DHT22;18351;47.560;9.708;2023-09-12T07:36:56;21.90;99.90
31783;DHT22;18351;47.560;9.708;2023-09-12T07:39:22;22.00;99.90
31783;DHT22;18351;47.560;9.708;2023-09-12T07:41:48;22.10;99.90
31783;DHT22;18351;47.560;9.708;2023-09-12T07:44:14;22.30;99.90
31783;DHT22;18351;47.560;9.708;2023-09-12T07:46:41;22.40;99.90
31783;DHT22;18351;47.560;9.708;2023-09-12T07:49:06;22.50;99.90
31783;DHT22;18351;47.560;9.708;2023-09-12T07:51:34;22.60;99.90
31783;DHT22;18351;47.560;9.708;2023-09-12T07:54:00;22.70;99.90
31783;DHT22;18351;47.560;9.708;2023-09-12T07:56:26;22.90;99.90
31783;DHT22;18351;47.560;9.708;2023-09-12T07:58:51;23.10;99.90
31783;DHT22;18351;47.560;9.708;2023-09-12T08:01:17;23.20;99.90
31783;DHT22;18351;47.560;9.708;2023-09-12T08:03:43;23.30;99.90
31783;DHT22;18351;47.560;9.708;2023-09-12T08:06:09;23.40;99.90
31783;DHT22;18351;47.560;9.708;2023-09-12T08:08:35;23.30;99.90
31783;DHT22;18351;47.560;9.708;2023-09-12T08:11:01;23.30;99.90
31783;DHT22;18351;47.560;9.708;2023-09-12T08:13:28;23.30;99.90
31783;DHT22;18351;47.560;9.708;2023-09-12T08:15:54;23.40;99.90
31783;DHT22;18351;47.560;9.708;2023-09-12T08:18:20;23.50;99.90
31783;DHT22;18351;47.560;9.708;2023-09-12T08:20:45;23.60;99.90
31783;DHT22;18351;47.560;9.708;2023-09-12T08:23:11;23.80;99.90
31783;DHT22;18351;47.560;9.708;2023-09-12T08:25:37;23.80;99.90
31783;DHT22;18351;47.560;9.708;2023-09-12T08:28:02;24.00;99.90
31783;DHT22;18351;47.560;9.708;2023-09-12T08:30:28;24.10;99.90
31783;DHT22;18351;47.560;9.708;2023-09-12T08:32:56;24.10;99.90
31783;DHT22;18351;47.560;9.708;2023-09-12T08:35:22;24.10;99.90
31783;DHT22;18351;47.560;9.708;2023-09-12T08:37:47;24.10;99.90
31783;DHT22;18351;47.560;9.708;2023-09-12T08:40:13;24.10;99.90
31783;DHT22;18351;47.560;9.708;2023-09-12T08:42:43;24.20;99.90
31783;DHT22;18351;47.560;9.708;2023-09-12T08:45:14;24.20;99.90
31783;DHT22;18351;47.560;9.708;2023-09-12T08:47:46;24.30;99.90
31783;DHT22;18351;47.560;9.708;2023-09-12T08:50:14;24.30;99.90
31783;DHT22;18351;47.560;9.708;2023-09-12T08:52:40;24.40;99.90
31783;DHT22;18351;47.560;9.708;2023-09-12T08:55:07;24.30;99.90
31783;DHT22;18351;47.560;9.708;2023-09-12T08:57:36;24.40;99.90
31783;DHT22;18351;47.560;9.708;2023-09-12T09:00:03;24.50;99.90
31783;DHT22;18351;47.560;9.708;2023-09-12T09:02:35;24.50;99.90
31783;DHT22;18351;47.560;9.708;2023-09-12T09:05:02;24.60;99.90
31783;DHT22;18351;47.560;9.708;2023-09-12T09:07:38;24.70;99.90
31783;DHT22;18351;47.560;9.708;2023-09-12T09:10:06;24.80;99.90
31783;DHT22;18351;47.560;9.708;2023-09-12T09:12:33;25.00;99.90
31783;DHT22;18351;47.560;9.708;2023-09-12T09:14:59;25.20;99.90
31783;DHT22;18351;47.560;9.708;2023-09-12T09:17:25;25.40;99.90
31783;DHT22;18351;47.560;9.708;2023-09-12T09:19:51;25.60;99.90
31783;DHT22;18351;47.560;9.708;2023-09-12T09:22:17;25.60;98.70
31783;DHT22;18351;47.560;9.708;2023-09-12T09:24:42;25.80;99.00
31783;DHT22;18351;47.560;9.708;2023-09-12T09:27:08;26.00;98.60
31783;DHT22;18351;47.560;9.708;2023-09-12T09:29:48;26.10;98.20
31783;DHT22;18351;47.560;9.708;2023-09-12T09:32:18;26.00;97.70
31783;DHT22;18351;47.560;9.708;2023-09-12T09:34:44;26.00;97.10
31783;DHT22;18351;47.560;9.708;2023-09-12T09:37:10;26.00;97.50
31783;DHT22;18351;47.560;9.708;2023-09-12T09:39:35;26.10;97.00
31783;DHT22;18351;47.560;9.708;2023-09-12T09:42:01;26.20;96.80
31783;DHT22;18351;47.560;9.708;2023-09-12T09:44:27;26.20;96.20
31783;DHT22;18351;47.560;9.708;2023-09-12T09:46:55;26.30;95.90
31783;DHT22;18351;47.560;9.708;2023-09-12T09:49:23;26.20;95.50
31783;DHT22;18351;47.560;9.708;2023-09-12T09:51:49;26.00;96.10
31783;DHT22;18351;47.560;9.708;2023-09-12T09:54:15;26.00;96.00
31783;DHT22;18351;47.560;9.708;2023-09-12T09:56:54;26.10;95.70
31783;DHT22;18351;47.560;9.708;2023-09-12T09:59:27;26.20;94.80
31783;DHT22;18351;47.560;9.708;2023-09-12T10:01:57;26.30;95.30
31783;DHT22;18351;47.560;9.708;2023-09-12T10:04:24;26.50;95.00
31783;DHT22;18351;47.560;9.708;2023-09-12T10:06:55;26.60;95.30
31783;DHT22;18351;47.560;9.708;2023-09-12T10:09:22;26.60;93.50
31783;DHT22;18351;47.560;9.708;2023-09-12T10:11:49;26.70;94.50
31783;DHT22;18351;47.560;9.708;2023-09-12T10:14:19;26.80;92.60
31783;DHT22;18351;47.560;9.708;2023-09-12T10:16:48;26.80;93.30
31783;DHT22;18351;47.560;9.708;2023-09-12T10:19:20;26.90;93.50
31783;DHT22;18351;47.560;9.708;2023-09-12T10:24:19;27.30;91.50
31783;DHT22;18351;47.560;9.708;2023-09-12T10:26:49;27.20;90.40
31783;DHT22;18351;47.560;9.708;2023-09-12T10:29:15;27.30;92.00
31783;DHT22;18351;47.560;9.708;2023-09-12T10:31:42;27.40;91.90
31783;DHT22;18351;47.560;9.708;2023-09-12T10:34:08;27.70;91.70
31783;DHT22;18351;47.560;9.708;2023-09-12T10:36:38;27.50;89.80
31783;DHT22;18351;47.560;9.708;2023-09-12T10:39:05;27.60;89.40
31783;DHT22;18351;47.560;9.708;2023-09-12T10:41:32;27.70;90.70
31783;DHT22;18351;47.560;9.708;2023-09-12T10:43:58;27.90;91.10
31783;DHT22;18351;47.560;9.708;2023-09-12T10:46:24;28.00;90.90
31783;DHT22;18351;47.560;9.708;2023-09-12T10:48:50;28.10;88.40
31783;DHT22;18351;47.560;9.708;2023-09-12T10:51:17;28.10;87.50
31783;DHT22;18351;47.560;9.708;2023-09-12T10:53:51;28.20;88.20
31783;DHT22;18351;47.560;9.708;2023-09-12T10:56:20;28.30;88.60
31783;DHT22;18351;47.560;9.708;2023-09-12T11:01:32;28.30;89.20
31783;DHT22;18351;47.560;9.708;2023-09-12T11:03:59;28.30;88.60
31783;DHT22;18351;47.560;9.708;2023-09-12T11:06:30;28.30;90.40
31783;DHT22;18351;47.560;9.708;2023-09-12T11:11:46;28.40;87.90
31783;DHT22;18351;47.560;9.708;2023-09-12T11:14:12;28.40;86.70
31783;DHT22;18351;47.560;9.708;2023-09-12T11:16:38;28.60;87.80
31783;DHT22;18351;47.560;9.708;2023-09-12T11:19:14;28.60;88.20
31783;DHT22;18351;47.560;9.708;2023-09-12T11:21:41;28.70;85.90
31783;DHT22;18351;47.560;9.708;2023-09-12T11:24:07;28.70;85.20
31783;DHT22;18351;47.560;9.708;2023-09-12T11:26:33;28.80;87.20
31783;DHT22;18351;47.560;9.708;2023-09-12T11:29:11;28.90;87.10
31783;DHT22;18351;47.560;9.708;2023-09-12T11:31:38;28.90;84.80
31783;DHT22;18351;47.560;9.708;2023-09-12T11:34:09;28.90;84.20
31783;DHT22;18351;47.560;9.708;2023-09-12T11:36:41;28.80;85.20
31783;DHT22;18351;47.560;9.708;2023-09-12T11:39:22;28.70;88.10
31783;DHT22;18351;47.560;9.708;2023-09-12T11:41:50;28.90;87.10
31783;DHT22;18351;47.560;9.708;2023-09-12T11:44:16;29.00;88.20
31783;DHT22;18351;47.560;9.708;2023-09-12T11:46:42;29.20;85.40
31783;DHT22;18351;47.560;9.708;2023-09-12T11:49:07;29.20;84.90
31783;DHT22;18351;47.560;9.708;2023-09-12T11:51:33;29.20;84.00
31783;DHT22;18351;47.560;9.708;2023-09-12T11:53:58;29.20;86.10
31783;DHT22;18351;47.560;9.708;2023-09-12T11:56:25;29.20;86.20
31783;DHT22;18351;47.560;9.708;2023-09-12T11:58:53;29.20;86.10
31783;DHT22;18351;47.560;9.708;2023-09-12T12:01:20;29.20;86.10
31783;DHT22;18351;47.560;9.708;2023-09-12T12:03:46;29.20;85.50
31783;DHT22;18351;47.560;9.708;2023-09-12T12:06:18;29.20;84.90
31783;DHT22;18351;47.560;9.708;2023-09-12T12:08:44;29.30;84.30
31783;DHT22;18351;47.560;9.708;2023-09-12T12:11:11;29.40;84.10
31783;DHT22;18351;47.560;9.708;2023-09-12T12:13:36;29.60;82.20
31783;DHT22;18351;47.560;9.708;2023-09-12T12:16:14;29.80;82.50
31783;DHT22;18351;47.560;9.708;2023-09-12T12:18:40;30.00;84.40
31783;DHT22;18351;47.560;9.708;2023-09-12T12:21:06;30.10;83.10
31783;DHT22;18351;47.560;9.708;2023-09-12T12:23:32;30.20;83.70
31783;DHT22;18351;47.560;9.708;2023-09-12T12:26:11;30.00;87.30
31783;DHT22;18351;47.560;9.708;2023-09-12T12:28:37;30.00;88.60
31783;DHT22;18351;47.560;9.708;2023-09-12T12:31:03;30.20;89.90
31783;DHT22;18351;47.560;9.708;2023-09-12T12:33:30;30.20;87.50
31783;DHT22;18351;47.560;9.708;2023-09-12T12:36:05;29.90;86.00
31783;DHT22;18351;47.560;9.708;2023-09-12T12:38:37;29.70;87.20
31783;DHT22;18351;47.560;9.708;2023-09-12T12:41:03;29.80;87.40
31783;DHT22;18351;47.560;9.708;2023-09-12T12:43:30;29.70;87.20
31783;DHT22;18351;47.560;9.708;2023-09-12T12:45:57;29.70;86.10
31783;DHT22;18351;47.560;9.708;2023-09-12T12:48:34;29.70;87.70
31783;DHT22;18351;47.560;9.708;2023-09-12T12:51:05;29.50;88.10
31783;DHT22;18351;47.560;9.708;2023-09-12T12:53:41;29.40;88.10
31783;DHT22;18351;47.560;9.708;2023-09-12T12:56:07;29.40;90.00
31783;DHT22;18351;47.560;9.708;2023-09-12T12:58:33;29.50;87.80
31783;DHT22;18351;47.560;9.708;2023-09-12T13:01:00;29.30;89.80
31783;DHT22;18351;47.560;9.708;2023-09-12T13:03:26;29.30;90.40
31783;DHT22;18351;47.560;9.708;2023-09-12T13:05:51;29.40;90.30
31783;DHT22;18351;47.560;9.708;2023-09-12T13:08:17;29.50;90.60
31783;DHT22;18351;47.560;9.708;2023-09-12T13:10:43;29.60;90.00
31783;DHT22;18351;47.560;9.708;2023-09-12T13:13:09;29.60;90.10
31783;DHT22;18351;47.560;9.708;2023-09-12T13:15:35;29.70;90.80
31783;DHT22;18351;47.560;9.708;2023-09-12T13:18:01;29.70;91.40
31783;DHT22;18351;47.560;9.708;2023-09-12T13:20:26;29.50;90.40
31783;DHT22;18351;47.560;9.708;2023-09-12T13:22:52;29.60;90.70
31783;DHT22;18351;47.560;9.708;2023-09-12T13:25:18;29.60;91.00
31783;DHT22;18351;47.560;9.708;2023-09-12T13:27:45;29.70;91.00
31783;DHT22;18351;47.560;9.708;2023-09-12T13:30:11;29.80;90.80
31783;DHT22;18351;47.560;9.708;2023-09-12T13:32:37;29.80;89.10
31783;DHT22;18351;47.560;9.708;2023-09-12T13:35:02;29.60;90.40
31783;DHT22;18351;47.560;9.708;2023-09-12T13:37:28;29.50;90.50
31783;DHT22;18351;47.560;9.708;2023-09-12T13:39:55;29.20;90.20
31783;DHT22;18351;47.560;9.708;2023-09-12T13:42:20;29.00;90.30
31783;DHT22;18351;47.560;9.708;2023-09-12T13:44:49;28.70;91.50
31783;DHT22;18351;47.560;9.708;2023-09-12T13:47:16;28.60;92.20
31783;DHT22;18351;47.560;9.708;2023-09-12T13:49:47;28.50;92.60
31783;DHT22;18351;47.560;9.708;2023-09-12T13:52:13;28.40;93.00
31783;DHT22;18351;47.560;9.708;2023-09-12T13:54:40;28.30;92.70
31783;DHT22;18351;47.560;9.708;2023-09-12T13:57:05;28.10;93.30
31783;DHT22;18351;47.560;9.708;2023-09-12T13:59:31;28.00;93.40
31783;DHT22;18351;47.560;9.708;2023-09-12T14:01:56;27.90;93.60
31783;DHT22;18351;47.560;9.708;2023-09-12T14:04:22;27.90;93.60
31783;DHT22;18351;47.560;9.708;2023-09-12T14:06:47;27.80;94.30
31783;DHT22;18351;47.560;9.708;2023-09-12T14:09:13;27.80;93.90
31783;DHT22;18351;47.560;9.708;2023-09-12T14:11:40;27.70;93.90
31783;DHT22;18351;47.560;9.708;2023-09-12T14:14:06;27.50;93.80
31783;DHT22;18351;47.560;9.708;2023-09-12T14:16:31;27.40;94.30
31783;DHT22;18351;47.560;9.708;2023-09-12T14:18:58;27.20;93.60
31783;DHT22;18351;47.560;9.708;2023-09-12T14:21:24;27.10;94.10
31783;DHT22;18351;47.560;9.708;2023-09-12T14:23:49;27.00;94.90
31783;DHT22;18351;47.560;9.708;2023-09-12T14:26:15;26.90;95.00
31783;DHT22;18351;47.560;9.708;2023-09-12T14:28:40;26.80;95.10
31783;DHT22;18351;47.560;9.708;2023-09-12T14:31:06;26.70;95.60
31783;DHT22;18351;47.560;9.708;2023-09-12T14:33:38;26.50;95.80
31783;DHT22;18351;47.560;9.708;2023-09-12T14:36:05;26.40;96.70
31783;DHT22;18351;47.560;9.708;2023-09-12T14:38:30;26.30;97.20
31783;DHT22;18351;47.560;9.708;2023-09-12T14:40:56;26.10;98.00
31783;DHT22;18351;47.560;9.708;2023-09-12T14:43:21;25.90;96.90
31783;DHT22;18351;47.560;9.708;2023-09-12T14:45:48;25.80;97.10
31783;DHT22;18351;47.560;9.708;2023-09-12T14:48:14;25.70;96.50
31783;DHT22;18351;47.560;9.708;2023-09-12T14:50:39;25.60;97.20
31783;DHT22;18351;47.560;9.708;2023-09-12T14:53:06;25.50;98.00
31783;DHT22;18351;47.560;9.708;2023-09-12T14:55:32;25.40;99.00
31783;DHT22;18351;47.560;9.708;2023-09-12T14:57:57;25.30;97.90
31783;DHT22;18351;47.560;9.708;2023-09-12T15:00:24;25.20;98.30
31783;DHT22;18351;47.560;9.708;2023-09-12T15:02:50;25.20;99.80
31783;DHT22;18351;47.560;9.708;2023-09-12T15:05:16;25.00;99.90
31783;DHT22;18351;47.560;9.708;2023-09-12T15:07:42;24.90;99.90
31783;DHT22;18351;47.560;9.708;2023-09-12T15:10:08;24.80;99.90
31783;DHT22;18351;47.560;9.708;2023-09-12T15:12:33;24.80;96.70
31783;DHT22;18351;47.560;9.708;2023-09-12T15:14:59;24.80;96.80
31783;DHT22;18351;47.560;9.708;2023-09-12T15:17:24;24.80;95.00
31783;DHT22;18351;47.560;9.708;2023-09-12T15:19:50;24.70;94.50
31783;DHT22;18351;47.560;9.708;2023-09-12T15:22:15;24.60;94.20
31783;DHT22;18351;47.560;9.708;2023-09-12T15:24:41;24.50;94.80
31783;DHT22;18351;47.560;9.708;2023-09-12T15:27:07;24.40;96.00
31783;DHT22;18351;47.560;9.708;2023-09-12T15:29:33;24.30;96.30
31783;DHT22;18351;47.560;9.708;2023-09-12T15:31:58;24.20;98.50
31783;DHT22;18351;47.560;9.708;2023-09-12T15:34:26;24.10;99.50
31783;DHT22;18351;47.560;9.708;2023-09-12T15:37:09;24.00;99.90